Time;durP1;ratioP1;P1;durP2;ratioP2;P2;SDS_P1;SDS_P2;PMS_P1;PMS_P2;Temp;Humidity;BMP_temperature;BMP_pressure;BME280_temperature;BME280_humidity;BME280_pressure;Samples;Min_cycle;Max_cycle;Signal;HPM_P1;HPM_P2
2023/03/30 00:01:13;;;;;;;7.57;1.60;;;16.70;50.70;;;12.43;69.30;95476.78;4974391;28;20485;-51
2023/03/30 00:03:44;;;;;;;10.85;1.80;;;16.70;50.80;;;12.36;69.44;95468.31;4978559;28;20425;-52
2023/03/30 00:06:13;;;;;;;9.63;1.85;;;16.60;50.80;;;12.24;70.29;95465.19;4993974;28;20018;-51
2023/03/30 00:08:39;;;;;;;7.50;1.63;;;16.50;50.90;;;12.12;71.58;95460.16;4993559;28;20053;-48
2023/03/30 00:11:14;;;;;;;8.00;1.98;;;16.40;51.00;;;12.02;71.87;95461.03;4992310;28;20025;-46
2023/03/30 00:13:43;;;;;;;9.48;2.33;;;16.30;51.20;;;11.90;72.75;95462.44;4993629;28;20128;-49
2023/03/30 00:16:13;;;;;;;7.53;2.08;;;16.30;51.30;;;11.84;72.10;95461.63;4983585;28;20112;-49
2023/03/30 00:18:39;;;;;;;9.18;2.17;;;16.20;51.50;;;11.78;72.06;95452.88;4974195;28;20026;-50
2023/03/30 00:21:09;;;;;;;13.63;1.90;;;16.10;51.50;;;11.73;71.99;95446.78;4955895;28;20414;-52
2023/03/30 00:23:37;;;;;;;8.98;1.60;;;16.00;51.60;;;11.69;71.89;95451.84;4973523;28;20128;-48
2023/03/30 00:26:06;;;;;;;7.53;1.60;;;15.90;51.70;;;11.72;72.43;95445.16;4973840;28;20050;-53
2023/03/30 00:28:33;;;;;;;7.38;1.83;;;15.90;51.80;;;11.67;73.23;95445.19;4972852;28;20030;-50
2023/03/30 00:30:59;;;;;;;8.40;1.90;;;15.90;51.90;;;11.56;73.41;95439.09;4973395;28;20038;-50
2023/03/30 00:33:26;;;;;;;8.73;2.00;;;15.80;52.00;;;11.54;72.80;95441.25;4972928;28;20026;-49
2023/03/30 00:35:57;;;;;;;8.73;2.03;;;15.80;52.10;;;11.51;73.51;95429.25;4973670;28;20030;-47
2023/03/30 00:38:26;;;;;;;17.73;2.38;;;15.80;52.30;;;11.46;73.40;95434.59;4973669;28;20442;-48
2023/03/30 00:40:59;;;;;;;6.03;1.35;;;15.70;52.30;;;11.45;72.51;95433.03;4972764;28;20129;-51
2023/03/30 00:43:27;;;;;;;10.65;1.85;;;15.70;52.40;;;11.47;73.05;95425.56;4973292;28;20045;-46
2023/03/30 00:45:56;;;;;;;13.98;2.30;;;15.70;52.40;;;11.50;72.88;95414.34;4979851;28;20013;-49
2023/03/30 00:48:39;;;;;;;13.15;2.13;;;15.70;52.40;;;11.52;72.29;95411.38;4992898;28;20079;-50
2023/03/30 00:51:11;;;;;;;10.23;1.80;;;15.70;52.50;;;11.58;72.63;95407.63;4973702;28;20022;-49
2023/03/30 00:53:49;;;;;;;10.13;2.00;;;15.70;52.50;;;11.69;71.48;95421.69;4973241;28;20093;-50
2023/03/30 00:56:25;;;;;;;9.57;2.05;;;15.80;52.50;;;11.80;70.99;95417.91;4956338;28;20479;-51
2023/03/30 00:58:53;;;;;;;12.30;2.10;;;15.80;52.60;;;11.87;70.12;95420.28;4967052;28;20058;-49
2023/03/30 01:01:27;;;;;;;5.95;1.35;;;15.90;53.10;;;11.91;69.43;95414.13;4973303;28;20033;-51
2023/03/30 01:04:01;;;;;;;7.40;1.50;;;16.00;52.40;;;11.98;69.62;95414.63;4972510;28;20388;-51
2023/03/30 01:06:28;;;;;;;8.20;1.90;;;16.00;52.30;;;12.02;69.51;95421.00;4956006;28;20085;-49
2023/03/30 01:08:57;;;;;;;15.90;2.03;;;16.00;52.20;;;12.04;69.21;95423.41;4972626;28;20030;-50
2023/03/30 01:11:25;;;;;;;8.20;2.03;;;16.10;52.20;;;12.09;68.98;95425.22;4972961;28;20108;-46
2023/03/30 01:14:03;;;;;;;9.30;1.75;;;16.10;52.10;;;12.13;69.02;95419.06;4955899;28;20163;-48
2023/03/30 01:16:53;;;;;;;11.70;2.20;;;16.20;52.20;;;12.16;68.93;95410.50;4947853;28;20113;-50
2023/03/30 01:20:10;;;;;;;8.13;1.80;;;16.20;52.10;;;12.19;68.57;95409.94;4955766;28;20022;-49
2023/03/30 01:23:26;;;;;;;5.82;1.80;;;16.20;52.00;;;12.22;68.77;95404.06;4957710;28;20037;-50
2023/03/30 01:26:13;;;;;;;10.02;1.65;;;16.30;52.00;;;12.23;68.96;95410.97;4955394;28;20071;-50
2023/03/30 01:29:04;;;;;;;11.30;1.45;;;16.30;51.90;;;12.21;68.10;95407.78;4984573;28;20043;-48
2023/03/30 01:31:41;;;;;;;7.95;2.03;;;16.30;52.40;;;12.25;68.59;95411.50;4955654;28;20061;-51
2023/03/30 01:34:34;;;;;;;8.88;1.67;;;16.30;51.80;;;12.22;70.11;95405.91;4963973;28;20026;-53
2023/03/30 01:37:41;;;;;;;11.75;1.42;;;16.30;51.80;;;12.16;71.29;95407.00;4953247;28;20031;-48
2023/03/30 01:40:43;;;;;;;9.90;1.50;;;16.30;51.80;;;12.13;74.44;95419.06;4947169;28;20044;-46
2023/03/30 01:43:29;;;;;;;11.98;2.08;;;16.30;52.00;;;12.11;74.39;95426.53;4953425;28;20443;-50
2023/03/30 01:46:16;;;;;;;11.30;1.75;;;16.30;52.20;;;12.07;74.69;95446.88;4952394;28;20478;-48
2023/03/30 01:49:17;;;;;;;5.30;1.92;;;16.30;52.50;;;12.10;77.09;95450.88;4952356;29;20092;-49
2023/03/30 01:52:20;;;;;;;13.10;2.10;;;16.20;53.00;;;12.08;76.70;95461.03;4952674;28;20019;-50
2023/03/30 01:55:31;;;;;;;11.03;2.10;;;16.10;53.10;;;12.03;78.38;95477.84;4952134;29;20034;-49
2023/03/30 01:58:26;;;;;;;13.55;2.30;;;16.10;53.50;;;11.97;78.95;95470.94;4952667;28;20105;-44
2023/03/30 02:00:55;;;;;;;8.55;2.22;;;15.90;53.70;;;11.90;80.24;95465.91;4952341;29;20118;-48
2023/03/30 02:03:39;;;;;;;8.35;1.77;;;15.80;53.80;;;11.78;84.97;95468.91;4951473;28;20460;-47
2023/03/30 02:06:37;;;;;;;11.45;1.85;;;15.80;54.50;;;11.64;87.52;95448.41;4953420;28;20031;-51
2023/03/30 02:09:09;;;;;;;12.07;1.88;;;15.70;55.00;;;11.40;90.97;95421.56;4951537;28;20027;-44
2023/03/30 02:11:42;;;;;;;12.05;1.98;;;15.50;55.00;;;11.21;92.27;95422.16;4971281;28;20593;-48
2023/03/30 02:14:16;;;;;;;8.55;1.88;;;15.40;55.50;;;11.13;92.04;95432.59;4971191;28;20034;-46
2023/03/30 02:16:59;;;;;;;8.07;1.67;;;15.30;55.90;;;11.00;93.87;95418.78;4966651;28;20125;-49
2023/03/30 02:19:26;;;;;;;9.90;2.08;;;15.20;56.40;;;10.91;94.13;95399.09;4952142;28;20031;-47
2023/03/30 02:21:52;;;;;;;8.27;1.70;;;15.10;56.30;;;10.76;94.63;95383.13;4955233;28;20022;-46
2023/03/30 02:24:27;;;;;;;8.13;1.90;;;15.00;56.60;;;10.73;95.70;95389.78;4955777;28;20034;-47
2023/03/30 02:26:53;;;;;;;7.10;1.75;;;14.90;57.20;;;10.70;96.48;95384.22;4955729;28;20450;-48
2023/03/30 02:29:21;;;;;;;15.35;2.20;;;14.90;57.30;;;10.54;96.37;95378.91;4973706;28;20105;-46
2023/03/30 02:31:55;;;;;;;10.70;1.75;;;14.80;57.50;;;10.56;96.83;95375.97;4984377;28;20465;-45
2023/03/30 02:35:09;;;;;;;8.68;2.28;;;14.80;57.90;;;10.56;97.59;95376.78;4973541;28;20037;-46
2023/03/30 02:38:22;;;;;;;13.15;2.28;;;14.70;58.20;;;10.49;97.10;95362.91;4975782;28;20026;-48
2023/03/30 02:41:16;;;;;;;8.70;1.80;;;14.70;58.30;;;10.39;95.99;95349.63;4959160;28;20044;-47
2023/03/30 02:44:11;;;;;;;;;;;14.60;58.30;;;10.41;96.32;95342.97;4976032;28;20030;-49
2023/03/30 02:47:35;;;;;;;8.65;1.85;;;14.60;57.70;;;10.44;95.17;95325.66;4987878;28;19913;-48
2023/03/30 02:50:59;;;;;;;6.28;1.40;;;14.60;58.30;;;10.47;96.14;95335.00;4978100;28;20234;-48
2023/03/30 02:53:49;;;;;;;8.35;1.95;;;14.60;58.30;;;10.47;95.39;95327.00;4915771;28;20036;-48
2023/03/30 02:56:43;;;;;;;10.27;2.00;;;14.60;58.50;;;10.53;95.51;95325.91;4958940;28;20053;-45
2023/03/30 02:59:21;;;;;;;8.40;1.98;;;14.60;58.60;;;10.52;96.05;95303.78;4958363;28;20030;-53
2023/03/30 03:02:05;;;;;;;11.35;2.30;;;14.60;58.70;;;10.52;96.33;95305.66;4958308;28;20022;-50
2023/03/30 03:04:33;;;;;;;16.20;2.03;;;14.60;58.80;;;10.45;93.81;95302.50;4966090;28;20045;-49
2023/03/30 03:07:01;;;;;;;15.10;2.10;;;14.60;58.70;;;10.53;92.95;95307.25;4957954;28;20026;-46
2023/03/30 03:09:28;;;;;;;10.90;2.47;;;14.60;58.80;;;10.62;92.06;95298.47;4974696;28;20121;-45
2023/03/30 03:11:55;;;;;;;14.32;2.45;;;14.70;58.90;;;10.72;91.83;95300.28;4975174;28;20053;-47
2023/03/30 03:14:21;;;;;;;9.55;2.00;;;14.70;58.90;;;10.75;91.76;95302.41;4975217;28;20081;-47
2023/03/30 03:16:47;;;;;;;7.78;2.30;;;14.80;59.00;;;10.80;90.83;95299.72;4988251;28;20380;-47
2023/03/30 03:19:14;;;;;;;7.10;1.77;;;14.80;59.00;;;10.82;92.73;95278.94;4994493;28;20084;-46
2023/03/30 03:21:40;;;;;;;11.05;1.73;;;14.80;59.10;;;10.83;93.31;95266.41;4992982;28;20026;-45
2023/03/30 03:24:06;;;;;;;9.20;1.92;;;14.90;59.20;;;10.80;93.88;95256.28;4978749;28;20072;-46
2023/03/30 03:26:32;;;;;;;8.25;1.85;;;14.90;59.10;;;10.73;94.77;95240.59;4975008;28;20022;-46
2023/03/30 03:28:58;;;;;;;9.85;2.05;;;14.90;59.20;;;10.60;93.73;95249.19;4971567;28;20488;-45
2023/03/30 03:31:25;;;;;;;8.77;2.08;;;14.90;59.20;;;10.61;93.20;95246.25;4993696;28;20069;-48
2023/03/30 03:33:52;;;;;;;12.55;2.15;;;14.90;59.30;;;10.62;92.83;95231.06;4993225;28;20038;-47
2023/03/30 03:36:18;;;;;;;6.80;2.03;;;14.90;59.30;;;10.68;92.05;95227.28;4994042;28;20040;-46
2023/03/30 03:38:44;;;;;;;10.63;2.42;;;14.90;59.30;;;10.72;91.21;95223.03;4994123;28;20026;-47
2023/03/30 03:41:10;;;;;;;6.68;1.83;;;14.80;59.30;;;10.81;91.08;95209.91;4993026;28;20026;-45
2023/03/30 03:43:36;;;;;;;11.52;1.50;;;14.90;59.40;;;10.85;92.58;95192.34;4976725;28;20099;-45
2023/03/30 03:46:03;;;;;;;15.40;2.40;;;14.90;59.40;;;10.80;92.29;95181.69;4984935;28;20018;-46
2023/03/30 03:48:29;;;;;;;9.23;1.92;;;14.90;59.40;;;10.82;89.72;95182.22;4974463;28;20112;-50
2023/03/30 03:50:58;;;;;;;7.15;1.70;;;14.90;59.40;;;10.84;90.10;95180.88;4974330;28;20101;-46
2023/03/30 03:53:27;;;;;;;8.15;1.77;;;14.90;59.40;;;10.84;90.94;95188.88;4973819;28;20469;-48
2023/03/30 03:55:54;;;;;;;9.75;2.05;;;15.00;59.50;;;10.87;90.82;95185.66;4974652;28;20080;-47
2023/03/30 03:58:22;;;;;;;14.88;2.92;;;15.00;59.50;;;10.93;90.43;95194.41;4973755;28;20030;-46
2023/03/30 04:01:08;;;;;;;8.15;2.15;;;15.00;59.60;;;10.94;91.47;95196.00;4971915;28;20028;-46
2023/03/30 04:03:34;;;;;;;10.88;1.95;;;15.00;59.70;;;10.94;91.38;95189.88;4923670;29;20043;-46
2023/03/30 04:06:01;;;;;;;11.35;2.10;;;15.00;59.50;;;10.91;92.14;95193.91;4923083;29;20122;-46
2023/03/30 04:08:27;;;;;;;15.73;2.80;;;15.00;59.50;;;10.85;92.78;95181.66;4933196;29;20545;-48
2023/03/30 04:10:53;;;;;;;8.95;1.80;;;15.00;59.50;;;10.80;89.72;95174.50;4918194;29;20042;-48
2023/03/30 04:13:20;;;;;;;13.32;1.95;;;15.00;59.50;;;10.79;92.90;95174.78;4914529;29;20399;-46
2023/03/30 04:15:46;;;;;;;10.18;2.05;;;15.00;59.60;;;10.75;91.67;95171.06;4918969;29;20038;-48
2023/03/30 04:18:12;;;;;;;11.77;2.20;;;14.90;59.50;;;10.72;90.72;95171.59;4928928;29;20027;-46
2023/03/30 04:20:37;;;;;;;8.02;2.13;;;14.90;59.60;;;10.77;89.53;95176.91;4914058;29;20027;-48
2023/03/30 04:23:03;;;;;;;5.95;1.80;;;14.90;59.60;;;10.80;89.08;95174.50;4928820;29;20046;-46
2023/03/30 04:25:29;;;;;;;10.80;1.73;;;14.90;59.60;;;10.83;89.27;95165.94;4933175;29;20438;-47
2023/03/30 04:27:56;;;;;;;10.43;1.85;;;14.90;60.30;;;10.83;89.25;95170.47;4931925;29;20042;-54
2023/03/30 04:30:23;;;;;;;8.10;1.98;;;14.90;59.60;;;10.82;88.03;95171.56;4932886;29;20031;-46
2023/03/30 04:33:01;;;;;;;9.52;1.70;;;14.90;59.40;;;10.82;88.21;95179.56;4932581;29;20521;-46
2023/03/30 04:35:31;;;;;;;9.63;3.10;;;15.00;59.40;;;10.80;88.37;95187.03;4932728;29;20066;-47
2023/03/30 04:37:57;;;;;;;11.30;2.55;;;14.90;59.40;;;10.73;89.07;95183.88;4932810;29;20105;-46
2023/03/30 04:40:23;;;;;;;7.13;1.63;;;14.90;59.30;;;10.66;88.50;95176.19;4931935;28;20039;-46
2023/03/30 04:42:49;;;;;;;4.55;1.60;;;14.90;59.30;;;10.66;88.94;95186.84;4953143;28;20022;-46
2023/03/30 04:45:17;;;;;;;9.43;1.90;;;14.90;59.40;;;10.62;89.44;95183.09;4953311;28;20029;-48
2023/03/30 04:47:45;;;;;;;9.77;1.80;;;14.80;59.30;;;10.60;88.29;95162.09;4952682;28;20392;-46
2023/03/30 04:50:11;;;;;;;6.38;2.03;;;14.80;59.40;;;10.58;87.58;95160.75;4954209;28;20041;-48
2023/03/30 04:52:37;;;;;;;7.15;1.85;;;14.80;59.30;;;10.59;86.35;95157.03;4953083;28;20026;-48
2023/03/30 04:55:04;;;;;;;7.57;2.10;;;14.70;59.30;;;10.67;86.28;95145.81;4953873;28;20381;-46
2023/03/30 04:57:30;;;;;;;9.73;2.22;;;14.80;59.40;;;10.74;86.25;95148.16;4955975;28;20029;-47
2023/03/30 04:59:55;;;;;;;5.78;1.60;;;14.70;59.30;;;10.70;85.98;95153.25;4973484;28;20458;-48
2023/03/30 05:02:21;;;;;;;10.68;1.85;;;14.80;59.30;;;10.70;85.56;95161.25;4973032;28;20037;-50
2023/03/30 05:04:47;;;;;;;7.05;1.33;;;14.80;59.30;;;10.68;85.61;95167.91;4959540;28;20478;-48
2023/03/30 05:07:13;;;;;;;11.07;2.38;;;14.70;59.20;;;10.71;85.28;95173.47;4953841;28;20026;-51
2023/03/30 05:09:39;;;;;;;8.85;2.10;;;14.70;59.40;;;10.75;84.74;95181.72;4955006;28;20015;-50
2023/03/30 05:12:05;;;;;;;9.82;1.75;;;14.80;59.30;;;10.77;84.60;95177.72;4967188;28;20033;-48
2023/03/30 05:14:31;;;;;;;8.43;2.33;;;14.80;59.30;;;10.79;85.10;95180.91;4973202;28;20109;-49
2023/03/30 05:16:57;;;;;;;8.75;1.95;;;14.80;59.20;;;10.82;84.58;95184.88;4957878;28;20157;-48
2023/03/30 05:19:24;;;;;;;9.00;1.80;;;14.80;59.10;;;10.82;84.69;95191.00;4950668;28;20021;-50
2023/03/30 05:21:50;;;;;;;9.13;1.63;;;14.80;59.10;;;10.86;83.75;95192.03;4957019;28;20033;-48
2023/03/30 05:24:16;;;;;;;4.82;1.67;;;14.90;59.10;;;10.91;84.21;95187.78;4972497;28;20045;-55
2023/03/30 05:26:42;;;;;;;5.25;1.58;;;14.90;59.10;;;10.88;83.86;95189.91;4971328;28;20030;-49
2023/03/30 05:29:08;;;;;;;12.63;2.10;;;15.00;59.00;;;10.90;84.97;95189.63;4955818;28;20030;-48
2023/03/30 05:31:34;;;;;;;9.32;1.92;;;14.90;58.90;;;10.88;84.70;95194.44;4976265;23;20337;-53
2023/03/30 05:34:00;;;;;;;10.10;1.60;;;15.00;58.90;;;10.85;84.54;95198.44;5008708;28;20033;-52
2023/03/30 05:36:27;;;;;;;6.45;2.42;;;15.00;58.90;;;10.83;84.73;95199.78;5009744;28;20442;-51
2023/03/30 05:38:53;;;;;;;10.57;1.75;;;15.00;58.80;;;10.82;84.82;95196.34;5010695;28;20418;-50
2023/03/30 05:41:18;;;;;;;11.35;1.83;;;15.00;58.80;;;10.80;84.81;95198.47;4999240;28;20032;-49
2023/03/30 05:43:45;;;;;;;3.92;1.30;;;15.00;58.70;;;10.72;87.31;95188.41;4972389;28;20026;-51
2023/03/30 05:46:10;;;;;;;5.75;1.73;;;15.00;58.70;;;10.64;87.38;95187.09;4979981;28;20022;-54
2023/03/30 05:48:36;;;;;;;9.90;2.25;;;15.00;58.70;;;10.61;88.14;95178.88;4991524;28;20032;-55
2023/03/30 05:51:02;;;;;;;9.75;1.60;;;15.00;58.80;;;10.52;89.04;95173.31;4991754;28;20021;-52
2023/03/30 05:53:28;;;;;;;9.35;1.98;;;14.90;58.80;;;10.42;88.43;95174.16;4990204;28;20025;-51
2023/03/30 05:55:54;;;;;;;9.38;2.03;;;14.90;58.80;;;10.37;88.94;95171.53;4993619;28;20024;-49
2023/03/30 05:58:20;;;;;;;11.85;1.50;;;14.90;58.90;;;10.47;89.95;95172.56;4989704;28;20033;-50
2023/03/30 06:00:48;;;;;;;7.45;1.63;;;14.80;58.90;;;10.44;89.23;95181.88;4981498;28;20109;-52
2023/03/30 06:03:14;;;;;;;8.13;1.90;;;14.80;59.00;;;10.41;87.33;95183.22;4987314;28;20113;-49
2023/03/30 06:05:43;;;;;;;9.63;1.73;;;14.80;58.90;;;10.48;89.23;95182.13;4992300;28;20009;-52
2023/03/30 06:08:12;;;;;;;6.97;1.88;;;14.90;59.00;;;10.51;88.88;95187.69;4992576;28;20550;-50
2023/03/30 06:10:38;;;;;;;10.27;2.10;;;14.80;59.00;;;10.54;89.41;95184.50;4983371;28;20037;-50
2023/03/30 06:13:05;;;;;;;5.90;1.20;;;14.90;59.20;;;10.50;91.16;95186.13;4995420;28;20052;-49
2023/03/30 06:15:31;;;;;;;7.32;1.30;;;14.80;59.70;;;10.49;90.51;95183.72;4961284;28;20383;-52
2023/03/30 06:18:02;;;;;;;10.55;1.75;;;14.90;59.30;;;10.45;90.94;95183.47;4989580;28;20056;-51
2023/03/30 06:20:28;;;;;;;6.70;1.85;;;14.80;59.30;;;10.47;90.41;95184.00;4986342;28;20025;-52
2023/03/30 06:22:54;;;;;;;7.43;1.83;;;14.90;59.30;;;10.48;91.81;95179.47;4968260;28;20041;-53
2023/03/30 06:25:20;;;;;;;10.70;2.15;;;14.90;59.30;;;10.48;91.99;95174.13;4977385;28;20018;-53
2023/03/30 06:27:46;;;;;;;11.80;1.80;;;14.90;59.40;;;10.50;92.04;95161.31;4980668;28;20025;-50
2023/03/30 06:30:14;;;;;;;10.77;1.90;;;14.90;59.50;;;10.49;92.38;95152.53;4995292;28;20017;-49
2023/03/30 06:32:40;;;;;;;8.52;2.10;;;14.90;59.60;;;10.46;91.95;95166.41;4974171;28;20408;-51
2023/03/30 06:35:06;;;;;;;12.18;1.80;;;14.90;59.60;;;10.50;91.33;95156.00;4974849;28;20022;-51
2023/03/30 06:37:35;;;;;;;7.10;1.88;;;14.90;59.50;;;10.53;88.04;95155.47;4975526;28;20030;-54
2023/03/30 06:40:35;;;;;;;10.98;2.00;;;15.00;59.50;;;10.59;91.41;95133.06;4974566;28;20368;-51
2023/03/30 06:42:54;;;;;;;9.02;1.95;;;15.00;59.50;;;10.67;90.41;95139.69;4952233;28;20130;-53
2023/03/30 06:45:19;;;;;;;8.63;1.80;;;15.10;59.50;;;10.71;89.61;95160.16;4955697;28;20138;-50
2023/03/30 06:47:46;;;;;;;6.75;1.67;;;15.10;59.50;;;10.81;89.66;95157.44;4956028;28;20057;-52
2023/03/30 06:50:12;;;;;;;6.78;1.67;;;15.20;59.50;;;10.88;86.71;95147.28;4956055;28;20023;-49
2023/03/30 06:52:38;;;;;;;6.70;1.65;;;15.30;59.40;;;10.95;88.17;95154.97;4981794;28;20034;-51
2023/03/30 06:55:05;;;;;;;10.52;2.40;;;15.40;59.40;;;11.02;87.55;95170.63;4975417;28;20480;-53
2023/03/30 06:57:31;;;;;;;17.00;2.20;;;15.40;59.30;;;11.03;88.16;95231.66;4974484;28;20401;-52
2023/03/30 06:59:57;;;;;;;13.55;2.33;;;15.40;59.20;;;11.01;88.62;95263.13;4975451;28;20018;-50
2023/03/30 07:02:24;;;;;;;12.48;2.33;;;15.50;59.20;;;11.09;87.48;95233.22;4975115;28;20088;-51
2023/03/30 07:04:51;;;;;;;26.88;8.07;;;15.60;59.10;;;11.19;86.99;95240.38;4973918;28;20049;-54
2023/03/30 07:07:17;;;;;;;8.77;2.50;;;15.50;59.00;;;11.27;85.38;95217.66;4974461;28;20029;-53
2023/03/30 07:09:42;;;;;;;8.90;2.22;;;15.60;59.00;;;11.33;85.46;95236.00;4971589;28;20022;-52
2023/03/30 07:12:08;;;;;;;9.75;2.42;;;15.70;59.00;;;11.42;86.98;95240.75;4974883;28;20030;-55
2023/03/30 07:14:34;;;;;;;12.75;3.05;;;15.80;59.00;;;11.46;87.81;95245.25;4974981;28;20022;-52
2023/03/30 07:17:01;;;;;;;8.45;1.70;;;15.80;58.90;;;11.52;85.67;95244.13;4973953;28;20023;-54
2023/03/30 07:19:27;;;;;;;9.10;1.95;;;15.90;58.90;;;11.60;86.01;95252.63;4975050;28;20022;-54
2023/03/30 07:21:52;;;;;;;13.10;2.72;;;16.00;58.90;;;11.66;83.85;95257.66;4973496;28;20440;-52
2023/03/30 07:24:18;;;;;;;10.63;2.05;;;16.10;58.80;;;11.77;83.21;95253.00;4974837;28;20026;-51
2023/03/30 07:26:44;;;;;;;9.18;2.75;;;16.20;58.60;;;11.88;80.21;95269.78;4975058;28;20052;-54
2023/03/30 07:29:10;;;;;;;9.25;1.70;;;16.30;58.20;;;12.03;82.50;95277.63;4989318;28;20038;-54
2023/03/30 07:31:36;;;;;;;12.23;2.38;;;16.50;58.10;;;12.14;81.69;95273.81;4976043;28;20400;-57
2023/03/30 07:34:03;;;;;;;8.80;1.77;;;16.70;57.90;;;12.32;79.96;95252.81;4976040;28;20028;-52
2023/03/30 07:36:28;;;;;;;8.45;2.15;;;16.90;57.60;;;12.47;79.05;95269.47;4994380;28;20030;-52
2023/03/30 07:38:57;;;;;;;10.63;2.65;;;17.10;57.40;;;12.63;78.46;95264.75;4994199;28;20021;-55
2023/03/30 07:41:23;;;;;;;12.45;2.83;;;17.30;57.20;;;12.72;75.56;95273.75;4976005;28;20076;-54
2023/03/30 07:43:48;;;;;;;13.10;2.72;;;17.50;56.70;;;12.93;74.96;95268.13;4976645;28;20396;-55
2023/03/30 07:46:14;;;;;;;8.18;1.73;;;17.70;56.40;;;13.10;74.54;95273.81;4993018;28;20028;-53
2023/03/30 07:48:40;;;;;;;13.18;2.40;;;17.90;56.20;;;13.23;74.42;95263.47;4993941;28;20025;-53
2023/03/30 07:51:12;;;;;;;10.70;2.00;;;18.10;55.70;;;13.42;74.99;95258.97;4993844;28;20022;-57
2023/03/30 07:53:39;;;;;;;12.67;2.90;;;18.30;55.50;;;13.58;72.45;95251.50;4993383;28;20512;-53
2023/03/30 07:56:06;;;;;;;11.20;2.65;;;18.50;55.20;;;13.74;72.30;95263.53;4993970;28;20627;-54
2023/03/30 07:58:32;;;;;;;10.45;2.45;;;18.70;54.80;;;13.91;71.98;95263.00;4992987;28;20104;-51
2023/03/30 08:01:00;;;;;;;11.57;2.50;;;18.80;54.60;;;14.00;71.45;95266.59;4993580;28;20017;-52
2023/03/30 08:03:27;;;;;;;15.25;2.83;;;18.90;54.30;;;14.06;70.45;95262.75;4992739;28;20041;-51
2023/03/30 08:06:05;;;;;;;10.95;2.55;;;19.00;54.00;;;14.17;70.87;95271.41;4993886;28;20025;-54
2023/03/30 08:08:33;;;;;;;12.38;2.97;;;19.10;53.80;;;14.25;69.72;95273.41;4993799;28;20029;-52
2023/03/30 08:10:59;;;;;;;14.80;3.22;;;19.20;53.60;;;14.13;68.42;95278.44;4992244;28;20033;-52
2023/03/30 08:13:26;;;;;;;16.85;2.80;;;19.20;53.10;;;14.18;68.50;95275.69;4993280;28;20026;-52
2023/03/30 08:15:53;;;;;;;13.00;2.35;;;19.20;52.90;;;14.24;69.48;95292.47;4992444;28;20021;-54
2023/03/30 08:18:20;;;;;;;7.97;2.80;;;19.10;52.80;;;14.18;67.86;95286.38;4992394;28;20072;-50
2023/03/30 08:20:52;;;;;;;13.50;3.05;;;19.10;52.60;;;14.23;68.17;95282.84;4993355;28;20025;-55
2023/03/30 08:23:19;;;;;;;8.88;2.20;;;19.10;52.50;;;14.34;68.07;95294.97;4992114;28;20430;-54
2023/03/30 08:25:50;;;;;;;13.38;3.03;;;19.10;52.50;;;14.40;68.55;95285.75;4992918;28;20021;-54
2023/03/30 08:28:16;;;;;;;16.40;3.33;;;19.10;52.40;;;14.48;69.21;95292.31;4992468;28;20485;-51
2023/03/30 08:30:41;;;;;;;16.23;3.13;;;19.30;52.30;;;14.50;68.51;95282.88;4993110;28;20033;-52
2023/03/30 08:33:07;;;;;;;17.77;3.05;;;19.40;52.20;;;14.66;69.13;95298.69;4992419;28;20050;-56
2023/03/30 08:35:34;;;;;;;17.20;3.28;;;19.60;52.20;;;14.72;68.10;95294.84;4992995;28;20018;-52
2023/03/30 08:38:00;;;;;;;16.08;2.80;;;19.60;51.90;;;14.75;67.42;95300.38;4993086;28;20041;-55
2023/03/30 08:40:26;;;;;;;11.30;2.90;;;19.70;51.80;;;14.73;67.17;95304.47;4982584;28;20523;-55
2023/03/30 08:43:24;;;;;;;17.20;3.15;;;19.70;51.60;;;14.76;67.70;95302.00;4992934;28;20488;-53
2023/03/30 08:45:51;;;;;;;16.55;2.90;;;19.70;51.60;;;14.52;67.43;95298.69;4992026;28;20029;-54
2023/03/30 08:48:27;;;;;;;11.15;2.78;;;19.60;51.40;;;14.46;68.17;95297.16;4991783;28;20057;-55
2023/03/30 08:51:32;;;;;;;12.00;2.63;;;19.50;51.30;;;14.53;67.53;95305.63;4992573;28;20025;-51
2023/03/30 08:54:07;;;;;;;7.95;2.53;;;19.40;51.40;;;14.40;66.52;95301.03;4980837;28;20091;-51
2023/03/30 08:57:28;;;;;;;8.98;2.65;;;19.40;51.30;;;14.38;65.87;95297.84;4991633;28;20054;-53
2023/03/30 09:00:54;;;;;;;15.07;3.08;;;19.50;51.10;;;14.47;67.61;95310.25;4959461;28;20038;-55
2023/03/30 09:03:53;;;;;;;15.15;4.07;;;19.50;50.90;;;14.44;67.56;95313.53;4998587;28;20040;-54
2023/03/30 09:06:51;;;;;;;11.20;3.85;;;19.50;50.90;;;14.36;66.40;95303.50;4985000;28;20383;-52
2023/03/30 09:09:23;;;;;;;12.68;2.92;;;19.40;50.90;;;14.25;67.17;95310.13;4988459;28;20075;-52
2023/03/30 09:12:10;;;;;;;13.75;2.97;;;19.30;50.80;;;14.26;68.07;95312.50;4991501;28;20029;-52
2023/03/30 09:14:50;;;;;;;8.80;2.55;;;19.20;50.80;;;14.33;67.77;95318.28;4983437;28;20026;-52
2023/03/30 09:17:31;;;;;;;14.52;2.78;;;19.20;51.00;;;14.21;66.42;95322.50;4987363;28;20104;-53
2023/03/30 09:20:19;;;;;;;16.60;3.20;;;19.10;51.00;;;14.12;66.93;95333.88;4988396;28;20021;-52
2023/03/30 09:22:48;;;;;;;13.88;3.15;;;19.00;51.00;;;14.08;67.40;95340.13;4963984;28;20030;-53
2023/03/30 09:25:43;;;;;;;8.25;2.63;;;18.90;51.00;;;14.02;67.76;95354.69;4955613;28;20076;-49
2023/03/30 09:28:58;;;;;;;11.75;2.90;;;18.80;51.10;;;13.92;68.33;95384.31;4962828;28;20029;-52
2023/03/30 09:31:43;;;;;;;10.82;2.58;;;18.70;51.10;;;13.80;68.69;95390.09;4992179;28;20033;-55
2023/03/30 09:34:55;;;;;;;14.25;2.45;;;18.60;51.20;;;13.69;70.08;95391.28;4991274;28;20034;-49
2023/03/30 09:37:22;;;;;;;9.25;2.20;;;18.50;51.30;;;13.65;70.57;95402.56;4940471;28;20104;-51
2023/03/30 09:39:49;;;;;;;7.05;1.98;;;18.50;51.40;;;13.61;72.84;95427.53;4976083;28;20022;-51
2023/03/30 09:42:50;;;;;;;9.07;2.58;;;18.40;51.70;;;13.37;73.28;95417.66;4974444;28;20026;-53
2023/03/30 09:45:29;;;;;;;7.03;2.30;;;18.20;52.00;;;13.26;74.45;95424.22;4974689;28;20377;-52
2023/03/30 09:47:55;;;;;;;12.95;3.08;;;18.00;52.20;;;13.07;74.31;95418.78;4991809;28;20465;-50
2023/03/30 09:50:28;;;;;;;7.88;2.60;;;17.80;52.40;;;12.86;76.48;95431.53;4991941;28;20083;-52
2023/03/30 09:53:03;;;;;;;11.20;2.92;;;17.60;52.70;;;12.70;78.41;95438.91;4974032;28;20025;-50
2023/03/30 09:55:36;;;;;;;11.50;3.05;;;17.40;53.20;;;12.50;80.97;95439.88;4991680;28;20523;-50
2023/03/30 09:58:33;;;;;;;8.80;2.50;;;17.20;53.60;;;12.28;82.78;95460.88;4989479;28;20085;-55
2023/03/30 10:01:13;;;;;;;11.50;3.50;;;16.90;54.20;;;12.08;85.13;95491.19;4991044;28;20034;-57
2023/03/30 10:03:43;;;;;;;8.55;2.88;;;16.70;54.70;;;11.97;86.81;95501.13;4973453;28;20082;-50
2023/03/30 10:06:18;;;;;;;10.18;3.35;;;16.50;55.20;;;11.74;89.80;95513.19;4991857;28;20028;-56
2023/03/30 10:08:47;;;;;;;9.88;3.80;;;16.30;56.00;;;11.69;90.38;95505.22;4974417;28;20036;-50
2023/03/30 10:11:35;;;;;;;8.48;3.45;;;16.10;56.40;;;11.58;92.07;95474.31;4974544;28;20022;-52
2023/03/30 10:14:04;;;;;;;14.98;4.03;;;15.90;56.90;;;11.46;93.01;95466.59;4972170;28;20060;-52
2023/03/30 10:16:32;;;;;;;12.00;4.00;;;15.80;57.20;;;11.45;94.33;95464.22;4981897;28;20675;-54
2023/03/30 10:19:13;;;;;;;10.48;3.65;;;15.70;57.70;;;11.48;94.79;95450.34;4991596;28;20030;-54
2023/03/30 10:21:45;;;;;;;12.70;4.15;;;15.60;58.30;;;11.46;94.63;95431.94;4974483;28;20033;-52
2023/03/30 10:24:14;;;;;;;12.03;4.53;;;15.70;58.40;;;11.51;94.65;95423.13;4991561;28;20052;-54
2023/03/30 10:26:45;;;;;;;9.88;3.88;;;15.80;58.50;;;11.60;95.47;95437.50;4991362;28;20021;-54
2023/03/30 10:29:22;;;;;;;12.95;4.10;;;16.00;58.90;;;11.62;96.78;95448.66;4990597;28;20041;-51
2023/03/30 10:32:20;;;;;;;11.52;4.45;;;16.00;59.10;;;11.70;97.60;95461.44;4991331;28;20519;-53
2023/03/30 10:35:00;;;;;;;9.90;4.47;;;16.00;59.40;;;11.72;98.75;95464.66;4954567;28;20117;-51
2023/03/30 10:37:48;;;;;;;11.93;4.75;;;16.10;59.60;;;11.80;99.39;95480.06;4974636;28;20036;-52
2023/03/30 10:40:31;;;;;;;12.13;4.90;;;16.40;59.80;;;11.81;98.83;95495.03;4989411;28;20032;-53
2023/03/30 10:43:00;;;;;;;9.25;3.55;;;16.60;59.60;;;11.89;98.53;95495.56;4978129;28;20037;-54